sensor_id;sensor_type;location;lat;lon;timestamp;P1;durP1;ratioP1;P2;durP2;ratioP2
64684;SDS011;51109;47.414;18.954;2023-08-21T00:01:22;17.80;;;16.08;;
64684;SDS011;51109;47.414;18.954;2023-08-21T00:03:48;19.52;;;16.48;;
64684;SDS011;51109;47.414;18.954;2023-08-21T00:06:14;18.83;;;16.85;;
64684;SDS011;51109;47.414;18.954;2023-08-21T00:08:40;18.23;;;16.38;;
64684;SDS011;51109;47.414;18.954;2023-08-21T00:11:06;19.05;;;15.88;;
64684;SDS011;51109;47.414;18.954;2023-08-21T00:13:31;20.08;;;16.80;;
64684;SDS011;51109;47.414;18.954;2023-08-21T00:15:57;17.98;;;16.13;;
64684;SDS011;51109;47.414;18.954;2023-08-21T00:18:23;19.35;;;16.67;;
64684;SDS011;51109;47.414;18.954;2023-08-21T00:20:49;17.55;;;15.75;;
64684;SDS011;51109;47.414;18.954;2023-08-21T00:23:15;17.63;;;15.77;;
64684;SDS011;51109;47.414;18.954;2023-08-21T00:25:42;18.70;;;15.95;;
64684;SDS011;51109;47.414;18.954;2023-08-21T00:28:11;19.75;;;17.30;;
64684;SDS011;51109;47.414;18.954;2023-08-21T00:30:37;19.67;;;16.08;;
64684;SDS011;51109;47.414;18.954;2023-08-21T00:33:03;18.13;;;16.20;;
64684;SDS011;51109;47.414;18.954;2023-08-21T00:35:29;16.50;;;14.75;;
64684;SDS011;51109;47.414;18.954;2023-08-21T00:37:55;18.90;;;15.50;;
64684;SDS011;51109;47.414;18.954;2023-08-21T00:40:21;17.88;;;15.82;;
64684;SDS011;51109;47.414;18.954;2023-08-21T00:42:47;19.50;;;16.08;;
64684;SDS011;51109;47.414;18.954;2023-08-21T00:45:13;19.08;;;16.58;;
64684;SDS011;51109;47.414;18.954;2023-08-21T00:47:39;18.40;;;16.58;;
64684;SDS011;51109;47.414;18.954;2023-08-21T00:50:05;18.83;;;16.25;;
64684;SDS011;51109;47.414;18.954;2023-08-21T00:52:36;18.13;;;16.33;;
64684;SDS011;51109;47.414;18.954;2023-08-21T00:55:05;18.13;;;16.20;;
64684;SDS011;51109;47.414;18.954;2023-08-21T00:57:33;19.23;;;17.33;;
64684;SDS011;51109;47.414;18.954;2023-08-21T01:00:02;19.83;;;17.67;;
64684;SDS011;51109;47.414;18.954;2023-08-21T01:02:29;20.00;;;18.00;;
64684;SDS011;51109;47.414;18.954;2023-08-21T01:04:57;21.20;;;17.95;;
64684;SDS011;51109;47.414;18.954;2023-08-21T01:07:23;20.38;;;17.40;;
64684;SDS011;51109;47.414;18.954;2023-08-21T01:09:50;19.90;;;17.80;;
64684;SDS011;51109;47.414;18.954;2023-08-21T01:12:33;19.58;;;16.63;;
64684;SDS011;51109;47.414;18.954;2023-08-21T01:15:06;21.45;;;15.38;;
64684;SDS011;51109;47.414;18.954;2023-08-21T01:17:36;17.45;;;15.75;;
64684;SDS011;51109;47.414;18.954;2023-08-21T01:20:03;17.90;;;15.30;;
64684;SDS011;51109;47.414;18.954;2023-08-21T01:22:36;17.15;;;14.43;;
64684;SDS011;51109;47.414;18.954;2023-08-21T01:25:06;16.58;;;14.38;;
64684;SDS011;51109;47.414;18.954;2023-08-21T01:27:34;16.80;;;15.05;;
64684;SDS011;51109;47.414;18.954;2023-08-21T01:30:00;15.98;;;13.65;;
64684;SDS011;51109;47.414;18.954;2023-08-21T01:35:27;19.27;;;15.23;;
64684;SDS011;51109;47.414;18.954;2023-08-21T01:37:55;16.67;;;14.80;;
64684;SDS011;51109;47.414;18.954;2023-08-21T01:40:22;20.35;;;15.68;;
64684;SDS011;51109;47.414;18.954;2023-08-21T01:42:49;16.92;;;15.07;;
64684;SDS011;51109;47.414;18.954;2023-08-21T01:45:15;16.35;;;14.75;;
64684;SDS011;51109;47.414;18.954;2023-08-21T01:47:41;18.85;;;15.27;;
64684;SDS011;51109;47.414;18.954;2023-08-21T01:50:07;17.02;;;15.20;;
64684;SDS011;51109;47.414;18.954;2023-08-21T01:52:33;16.75;;;14.98;;
64684;SDS011;51109;47.414;18.954;2023-08-21T01:54:59;15.73;;;13.95;;
64684;SDS011;51109;47.414;18.954;2023-08-21T01:57:25;15.70;;;14.15;;
64684;SDS011;51109;47.414;18.954;2023-08-21T01:59:51;16.17;;;13.18;;
64684;SDS011;51109;47.414;18.954;2023-08-21T02:02:17;16.63;;;13.63;;
64684;SDS011;51109;47.414;18.954;2023-08-21T02:04:43;15.75;;;14.05;;
64684;SDS011;51109;47.414;18.954;2023-08-21T02:07:09;14.45;;;13.00;;
64684;SDS011;51109;47.414;18.954;2023-08-21T02:09:34;15.88;;;13.75;;
64684;SDS011;51109;47.414;18.954;2023-08-21T02:12:00;15.30;;;13.75;;
64684;SDS011;51109;47.414;18.954;2023-08-21T02:14:26;15.75;;;14.15;;
64684;SDS011;51109;47.414;18.954;2023-08-21T02:16:53;14.65;;;13.25;;
64684;SDS011;51109;47.414;18.954;2023-08-21T02:19:19;16.30;;;13.98;;
64684;SDS011;51109;47.414;18.954;2023-08-21T02:21:45;16.90;;;13.68;;
64684;SDS011;51109;47.414;18.954;2023-08-21T02:24:10;16.05;;;14.40;;
64684;SDS011;51109;47.414;18.954;2023-08-21T02:26:36;18.35;;;16.33;;
64684;SDS011;51109;47.414;18.954;2023-08-21T02:29:02;17.70;;;15.90;;
64684;SDS011;51109;47.414;18.954;2023-08-21T02:31:29;18.50;;;16.50;;
64684;SDS011;51109;47.414;18.954;2023-08-21T02:33:54;18.95;;;16.38;;
64684;SDS011;51109;47.414;18.954;2023-08-21T02:36:20;19.75;;;16.88;;
64684;SDS011;51109;47.414;18.954;2023-08-21T02:38:46;18.52;;;16.40;;
64684;SDS011;51109;47.414;18.954;2023-08-21T02:41:12;19.30;;;15.90;;
64684;SDS011;51109;47.414;18.954;2023-08-21T02:43:38;17.98;;;15.52;;
64684;SDS011;51109;47.414;18.954;2023-08-21T02:46:04;17.33;;;15.63;;
64684;SDS011;51109;47.414;18.954;2023-08-21T02:48:30;15.98;;;14.30;;
64684;SDS011;51109;47.414;18.954;2023-08-21T02:50:56;18.73;;;15.85;;
64684;SDS011;51109;47.414;18.954;2023-08-21T02:53:22;18.55;;;15.07;;
64684;SDS011;51109;47.414;18.954;2023-08-21T02:55:48;18.67;;;16.13;;
64684;SDS011;51109;47.414;18.954;2023-08-21T02:58:14;19.20;;;15.90;;
64684;SDS011;51109;47.414;18.954;2023-08-21T03:00:40;17.88;;;14.60;;
64684;SDS011;51109;47.414;18.954;2023-08-21T03:03:06;16.35;;;14.68;;
64684;SDS011;51109;47.414;18.954;2023-08-21T03:05:32;16.63;;;14.93;;
64684;SDS011;51109;47.414;18.954;2023-08-21T03:07:58;18.30;;;15.32;;
64684;SDS011;51109;47.414;18.954;2023-08-21T03:10:24;16.77;;;15.07;;
64684;SDS011;51109;47.414;18.954;2023-08-21T03:12:51;16.88;;;15.13;;
64684;SDS011;51109;47.414;18.954;2023-08-21T03:15:17;16.50;;;14.90;;
64684;SDS011;51109;47.414;18.954;2023-08-21T03:17:43;16.27;;;14.68;;
64684;SDS011;51109;47.414;18.954;2023-08-21T03:20:09;18.50;;;15.55;;
64684;SDS011;51109;47.414;18.954;2023-08-21T03:22:36;18.77;;;14.35;;
64684;SDS011;51109;47.414;18.954;2023-08-21T03:25:02;14.88;;;13.48;;
64684;SDS011;51109;47.414;18.954;2023-08-21T03:27:28;17.23;;;14.50;;
64684;SDS011;51109;47.414;18.954;2023-08-21T03:29:54;17.55;;;15.05;;
64684;SDS011;51109;47.414;18.954;2023-08-21T03:32:20;15.70;;;14.10;;
64684;SDS011;51109;47.414;18.954;2023-08-21T03:34:46;16.27;;;14.57;;
64684;SDS011;51109;47.414;18.954;2023-08-21T03:37:11;17.50;;;13.85;;
64684;SDS011;51109;47.414;18.954;2023-08-21T03:39:37;15.40;;;13.57;;
64684;SDS011;51109;47.414;18.954;2023-08-21T03:42:04;14.68;;;13.27;;
64684;SDS011;51109;47.414;18.954;2023-08-21T03:44:30;16.38;;;13.43;;
64684;SDS011;51109;47.414;18.954;2023-08-21T03:46:56;15.38;;;13.88;;
64684;SDS011;51109;47.414;18.954;2023-08-21T03:49:21;15.05;;;13.55;;
64684;SDS011;51109;47.414;18.954;2023-08-21T03:51:47;17.33;;;14.63;;
64684;SDS011;51109;47.414;18.954;2023-08-21T03:54:13;17.20;;;13.98;;
64684;SDS011;51109;47.414;18.954;2023-08-21T03:56:39;15.80;;;13.85;;
64684;SDS011;51109;47.414;18.954;2023-08-21T03:59:05;14.98;;;13.35;;
64684;SDS011;51109;47.414;18.954;2023-08-21T04:01:31;14.88;;;13.25;;
64684;SDS011;51109;47.414;18.954;2023-08-21T04:03:56;17.95;;;14.25;;
64684;SDS011;51109;47.414;18.954;2023-08-21T04:06:22;16.27;;;14.57;;
64684;SDS011;51109;47.414;18.954;2023-08-21T04:08:48;19.70;;;14.43;;
64684;SDS011;51109;47.414;18.954;2023-08-21T04:11:14;16.30;;;14.55;;
64684;SDS011;51109;47.414;18.954;2023-08-21T04:13:41;17.27;;;13.82;;
64684;SDS011;51109;47.414;18.954;2023-08-21T04:16:07;26.35;;;15.05;;
64684;SDS011;51109;47.414;18.954;2023-08-21T04:18:33;15.60;;;14.00;;
64684;SDS011;51109;47.414;18.954;2023-08-21T04:21:02;15.40;;;13.75;;
64684;SDS011;51109;47.414;18.954;2023-08-21T04:23:28;16.27;;;13.65;;
64684;SDS011;51109;47.414;18.954;2023-08-21T04:25:59;17.75;;;14.77;;
64684;SDS011;51109;47.414;18.954;2023-08-21T04:28:26;14.63;;;13.23;;
64684;SDS011;51109;47.414;18.954;2023-08-21T04:30:52;17.17;;;14.25;;
64684;SDS011;51109;47.414;18.954;2023-08-21T04:33:18;14.88;;;13.38;;
64684;SDS011;51109;47.414;18.954;2023-08-21T04:35:44;19.10;;;13.38;;
64684;SDS011;51109;47.414;18.954;2023-08-21T04:38:09;18.10;;;13.38;;
64684;SDS011;51109;47.414;18.954;2023-08-21T04:40:35;14.88;;;13.32;;
64684;SDS011;51109;47.414;18.954;2023-08-21T04:43:04;14.68;;;13.18;;
64684;SDS011;51109;47.414;18.954;2023-08-21T04:45:30;18.58;;;13.57;;
64684;SDS011;51109;47.414;18.954;2023-08-21T04:47:55;17.05;;;14.80;;
64684;SDS011;51109;47.414;18.954;2023-08-21T04:50:21;15.80;;;14.18;;
64684;SDS011;51109;47.414;18.954;2023-08-21T04:52:47;15.23;;;13.75;;
64684;SDS011;51109;47.414;18.954;2023-08-21T04:55:14;14.40;;;13.00;;
64684;SDS011;51109;47.414;18.954;2023-08-21T04:57:40;15.23;;;13.63;;
64684;SDS011;51109;47.414;18.954;2023-08-21T05:00:06;14.85;;;13.43;;
64684;SDS011;51109;47.414;18.954;2023-08-21T05:02:33;15.13;;;13.68;;
64684;SDS011;51109;47.414;18.954;2023-08-21T05:04:59;16.65;;;13.55;;
64684;SDS011;51109;47.414;18.954;2023-08-21T05:07:25;15.80;;;12.98;;
64684;SDS011;51109;47.414;18.954;2023-08-21T05:09:52;14.48;;;13.02;;
64684;SDS011;51109;47.414;18.954;2023-08-21T05:12:18;17.45;;;12.50;;
64684;SDS011;51109;47.414;18.954;2023-08-21T05:14:44;14.27;;;12.82;;
64684;SDS011;51109;47.414;18.954;2023-08-21T05:17:09;13.50;;;12.10;;
64684;SDS011;51109;47.414;18.954;2023-08-21T05:19:35;17.52;;;12.43;;
64684;SDS011;51109;47.414;18.954;2023-08-21T05:22:01;16.17;;;12.43;;
64684;SDS011;51109;47.414;18.954;2023-08-21T05:24:27;12.38;;;11.10;;
64684;SDS011;51109;47.414;18.954;2023-08-21T05:26:54;15.30;;;11.70;;
64684;SDS011;51109;47.414;18.954;2023-08-21T05:29:20;15.55;;;12.15;;
64684;SDS011;51109;47.414;18.954;2023-08-21T05:31:46;13.38;;;12.05;;
64684;SDS011;51109;47.414;18.954;2023-08-21T05:34:12;16.23;;;11.30;;
64684;SDS011;51109;47.414;18.954;2023-08-21T05:36:38;12.95;;;11.55;;
64684;SDS011;51109;47.414;18.954;2023-08-21T05:39:04;17.60;;;12.77;;
64684;SDS011;51109;47.414;18.954;2023-08-21T05:41:31;41.80;;;19.23;;
64684;SDS011;51109;47.414;18.954;2023-08-21T05:43:57;33.75;;;18.02;;
64684;SDS011;51109;47.414;18.954;2023-08-21T05:46:23;13.57;;;11.50;;
64684;SDS011;51109;47.414;18.954;2023-08-21T05:48:49;12.20;;;11.00;;
64684;SDS011;51109;47.414;18.954;2023-08-21T05:51:15;12.68;;;11.05;;
64684;SDS011;51109;47.414;18.954;2023-08-21T05:53:41;14.85;;;10.90;;
64684;SDS011;51109;47.414;18.954;2023-08-21T05:56:07;13.82;;;10.90;;
64684;SDS011;51109;47.414;18.954;2023-08-21T05:58:32;13.95;;;10.88;;
64684;SDS011;51109;47.414;18.954;2023-08-21T06:00:58;12.25;;;10.95;;
64684;SDS011;51109;47.414;18.954;2023-08-21T06:03:25;12.65;;;11.35;;
64684;SDS011;51109;47.414;18.954;2023-08-21T06:05:50;12.55;;;11.07;;
64684;SDS011;51109;47.414;18.954;2023-08-21T06:08:16;13.93;;;11.13;;
64684;SDS011;51109;47.414;18.954;2023-08-21T06:10:43;12.05;;;10.85;;
64684;SDS011;51109;47.414;18.954;2023-08-21T06:13:12;12.55;;;11.27;;
64684;SDS011;51109;47.414;18.954;2023-08-21T06:15:47;13.63;;;11.65;;
64684;SDS011;51109;47.414;18.954;2023-08-21T06:18:13;12.07;;;10.32;;
64684;SDS011;51109;47.414;18.954;2023-08-21T06:20:43;11.85;;;10.75;;
64684;SDS011;51109;47.414;18.954;2023-08-21T06:23:10;12.63;;;10.13;;
64684;SDS011;51109;47.414;18.954;2023-08-21T06:25:37;12.20;;;11.00;;
64684;SDS011;51109;47.414;18.954;2023-08-21T06:28:03;12.40;;;11.20;;
64684;SDS011;51109;47.414;18.954;2023-08-21T06:30:29;12.05;;;10.95;;
64684;SDS011;51109;47.414;18.954;2023-08-21T06:32:55;12.68;;;10.50;;
64684;SDS011;51109;47.414;18.954;2023-08-21T06:35:22;12.43;;;11.13;;
64684;SDS011;51109;47.414;18.954;2023-08-21T06:37:48;11.52;;;10.40;;
64684;SDS011;51109;47.414;18.954;2023-08-21T06:40:14;11.88;;;10.77;;
64684;SDS011;51109;47.414;18.954;2023-08-21T06:42:39;12.98;;;11.52;;
64684;SDS011;51109;47.414;18.954;2023-08-21T06:45:05;11.50;;;10.45;;
64684;SDS011;51109;47.414;18.954;2023-08-21T06:47:32;11.88;;;10.60;;
64684;SDS011;51109;47.414;18.954;2023-08-21T06:49:57;11.70;;;10.60;;
64684;SDS011;51109;47.414;18.954;2023-08-21T06:52:25;11.35;;;10.30;;
64684;SDS011;51109;47.414;18.954;2023-08-21T06:54:51;12.20;;;10.90;;
64684;SDS011;51109;47.414;18.954;2023-08-21T06:57:17;11.73;;;10.43;;
64684;SDS011;51109;47.414;18.954;2023-08-21T06:59:43;12.85;;;10.65;;
64684;SDS011;51109;47.414;18.954;2023-08-21T07:02:10;11.77;;;10.57;;
64684;SDS011;51109;47.414;18.954;2023-08-21T07:04:35;11.45;;;10.35;;
64684;SDS011;51109;47.414;18.954;2023-08-21T07:07:01;11.70;;;10.60;;
64684;SDS011;51109;47.414;18.954;2023-08-21T07:09:27;12.70;;;10.35;;
64684;SDS011;51109;47.414;18.954;2023-08-21T07:11:53;15.65;;;12.35;;
64684;SDS011;51109;47.414;18.954;2023-08-21T07:14:19;12.82;;;10.50;;
64684;SDS011;51109;47.414;18.954;2023-08-21T07:16:45;10.75;;;9.70;;
64684;SDS011;51109;47.414;18.954;2023-08-21T07:19:11;11.85;;;10.65;;
64684;SDS011;51109;47.414;18.954;2023-08-21T07:21:37;11.85;;;10.57;;
64684;SDS011;51109;47.414;18.954;2023-08-21T07:24:03;11.80;;;10.77;;
64684;SDS011;51109;47.414;18.954;2023-08-21T07:26:29;13.40;;;10.02;;
64684;SDS011;51109;47.414;18.954;2023-08-21T07:28:55;11.50;;;10.50;;
64684;SDS011;51109;47.414;18.954;2023-08-21T07:31:22;12.35;;;11.20;;
64684;SDS011;51109;47.414;18.954;2023-08-21T07:33:48;11.60;;;10.20;;
64684;SDS011;51109;47.414;18.954;2023-08-21T07:36:14;11.90;;;10.80;;
64684;SDS011;51109;47.414;18.954;2023-08-21T07:38:43;11.02;;;10.02;;
64684;SDS011;51109;47.414;18.954;2023-08-21T07:41:09;12.23;;;10.57;;
64684;SDS011;51109;47.414;18.954;2023-08-21T07:43:37;12.48;;;11.02;;
64684;SDS011;51109;47.414;18.954;2023-08-21T07:46:07;10.93;;;10.02;;
64684;SDS011;51109;47.414;18.954;2023-08-21T07:48:35;10.57;;;9.57;;
64684;SDS011;51109;47.414;18.954;2023-08-21T07:51:01;11.38;;;9.77;;
64684;SDS011;51109;47.414;18.954;2023-08-21T07:53:27;13.05;;;10.13;;
64684;SDS011;51109;47.414;18.954;2023-08-21T07:55:53;11.80;;;10.63;;
64684;SDS011;51109;47.414;18.954;2023-08-21T07:58:19;10.90;;;9.85;;
64684;SDS011;51109;47.414;18.954;2023-08-21T08:00:45;11.80;;;10.60;;
64684;SDS011;51109;47.414;18.954;2023-08-21T08:03:11;11.02;;;10.00;;
64684;SDS011;51109;47.414;18.954;2023-08-21T08:05:39;12.40;;;11.13;;
64684;SDS011;51109;47.414;18.954;2023-08-21T08:08:06;12.13;;;10.85;;
64684;SDS011;51109;47.414;18.954;2023-08-21T08:10:32;12.55;;;10.73;;
64684;SDS011;51109;47.414;18.954;2023-08-21T08:12:58;12.85;;;11.40;;
64684;SDS011;51109;47.414;18.954;2023-08-21T08:15:24;14.20;;;10.60;;
64684;SDS011;51109;47.414;18.954;2023-08-21T08:17:50;13.48;;;10.85;;
64684;SDS011;51109;47.414;18.954;2023-08-21T08:20:20;12.90;;;11.55;;
64684;SDS011;51109;47.414;18.954;2023-08-21T08:22:46;12.00;;;10.35;;
64684;SDS011;51109;47.414;18.954;2023-08-21T08:25:12;11.75;;;10.70;;
64684;SDS011;51109;47.414;18.954;2023-08-21T08:27:38;11.38;;;10.27;;
64684;SDS011;51109;47.414;18.954;2023-08-21T08:30:05;12.95;;;11.13;;
64684;SDS011;51109;47.414;18.954;2023-08-21T08:32:32;11.68;;;10.57;;
64684;SDS011;51109;47.414;18.954;2023-08-21T08:34:57;10.82;;;9.88;;
64684;SDS011;51109;47.414;18.954;2023-08-21T08:37:23;11.45;;;10.10;;
64684;SDS011;51109;47.414;18.954;2023-08-21T08:39:49;11.63;;;9.95;;
64684;SDS011;51109;47.414;18.954;2023-08-21T08:42:15;11.85;;;10.23;;
64684;SDS011;51109;47.414;18.954;2023-08-21T08:44:42;10.05;;;9.15;;
64684;SDS011;51109;47.414;18.954;2023-08-21T08:47:10;11.63;;;9.80;;
64684;SDS011;51109;47.414;18.954;2023-08-21T08:49:39;10.65;;;9.65;;
64684;SDS011;51109;47.414;18.954;2023-08-21T08:52:05;15.13;;;10.82;;
64684;SDS011;51109;47.414;18.954;2023-08-21T08:54:32;11.85;;;10.60;;
64684;SDS011;51109;47.414;18.954;2023-08-21T08:57:01;11.75;;;10.50;;
64684;SDS011;51109;47.414;18.954;2023-08-21T08:59:29;10.65;;;9.63;;
64684;SDS011;51109;47.414;18.954;2023-08-21T09:01:56;10.65;;;9.55;;
64684;SDS011;51109;47.414;18.954;2023-08-21T09:04:22;10.98;;;9.93;;
64684;SDS011;51109;47.414;18.954;2023-08-21T09:06:48;10.60;;;9.57;;
64684;SDS011;51109;47.414;18.954;2023-08-21T09:09:14;11.02;;;9.98;;
64684;SDS011;51109;47.414;18.954;2023-08-21T09:11:43;12.00;;;9.75;;
64684;SDS011;51109;47.414;18.954;2023-08-21T09:14:10;10.32;;;9.50;;
64684;SDS011;51109;47.414;18.954;2023-08-21T09:16:37;11.02;;;9.93;;
64684;SDS011;51109;47.414;18.954;2023-08-21T09:19:03;10.95;;;9.98;;
64684;SDS011;51109;47.414;18.954;2023-08-21T09:21:29;10.68;;;9.75;;
64684;SDS011;51109;47.414;18.954;2023-08-21T09:23:59;11.93;;;10.25;;
64684;SDS011;51109;47.414;18.954;2023-08-21T09:26:26;11.00;;;10.00;;
64684;SDS011;51109;47.414;18.954;2023-08-21T09:28:52;12.27;;;10.18;;
64684;SDS011;51109;47.414;18.954;2023-08-21T09:31:22;9.57;;;8.63;;
64684;SDS011;51109;47.414;18.954;2023-08-21T09:33:55;9.63;;;8.63;;
64684;SDS011;51109;47.414;18.954;2023-08-21T09:36:22;10.35;;;9.35;;
64684;SDS011;51109;47.414;18.954;2023-08-21T09:38:50;12.27;;;9.75;;
64684;SDS011;51109;47.414;18.954;2023-08-21T09:41:20;10.45;;;9.00;;
64684;SDS011;51109;47.414;18.954;2023-08-21T09:43:47;11.00;;;10.00;;
64684;SDS011;51109;47.414;18.954;2023-08-21T09:46:16;8.80;;;8.05;;
64684;SDS011;51109;47.414;18.954;2023-08-21T09:48:48;10.27;;;9.00;;
64684;SDS011;51109;47.414;18.954;2023-08-21T09:51:14;8.88;;;8.10;;
64684;SDS011;51109;47.414;18.954;2023-08-21T09:53:41;9.63;;;8.43;;
64684;SDS011;51109;47.414;18.954;2023-08-21T09:56:07;9.77;;;8.88;;
64684;SDS011;51109;47.414;18.954;2023-08-21T09:58:37;10.25;;;8.57;;
64684;SDS011;51109;47.414;18.954;2023-08-21T10:01:06;9.80;;;8.80;;
64684;SDS011;51109;47.414;18.954;2023-08-21T10:03:40;9.18;;;8.35;;
64684;SDS011;51109;47.414;18.954;2023-08-21T10:06:10;8.27;;;7.47;;
64684;SDS011;51109;47.414;18.954;2023-08-21T10:08:38;9.93;;;8.32;;
64684;SDS011;51109;47.414;18.954;2023-08-21T10:11:07;10.77;;;8.52;;
64684;SDS011;51109;47.414;18.954;2023-08-21T10:13:37;9.80;;;8.88;;
64684;SDS011;51109;47.414;18.954;2023-08-21T10:16:04;10.25;;;9.23;;
64684;SDS011;51109;47.414;18.954;2023-08-21T10:18:32;9.43;;;8.63;;
64684;SDS011;51109;47.414;18.954;2023-08-21T10:21:15;10.13;;;9.20;;
64684;SDS011;51109;47.414;18.954;2023-08-21T10:23:45;11.23;;;10.13;;
64684;SDS011;51109;47.414;18.954;2023-08-21T10:26:18;10.02;;;9.10;;
64684;SDS011;51109;47.414;18.954;2023-08-21T10:33:56;10.50;;;9.50;;
64684;SDS011;51109;47.414;18.954;2023-08-21T10:42:00;10.57;;;8.80;;
64684;SDS011;51109;47.414;18.954;2023-08-21T10:47:13;9.60;;;8.70;;
64684;SDS011;51109;47.414;18.954;2023-08-21T10:49:50;10.57;;;9.45;;
64684;SDS011;51109;47.414;18.954;2023-08-21T10:52:24;9.70;;;8.70;;
64684;SDS011;51109;47.414;18.954;2023-08-21T10:54:55;10.40;;;9.50;;
64684;SDS011;51109;47.414;18.954;2023-08-21T10:57:24;10.13;;;9.07;;
64684;SDS011;51109;47.414;18.954;2023-08-21T11:02:20;10.73;;;9.70;;
64684;SDS011;51109;47.414;18.954;2023-08-21T11:04:47;10.35;;;9.25;;
64684;SDS011;51109;47.414;18.954;2023-08-21T11:07:14;10.65;;;9.48;;
64684;SDS011;51109;47.414;18.954;2023-08-21T11:09:39;10.35;;;9.35;;
64684;SDS011;51109;47.414;18.954;2023-08-21T11:12:08;10.88;;;9.55;;
64684;SDS011;51109;47.414;18.954;2023-08-21T11:14:36;9.30;;;8.38;;
64684;SDS011;51109;47.414;18.954;2023-08-21T11:17:03;11.57;;;9.80;;
64684;SDS011;51109;47.414;18.954;2023-08-21T11:19:32;11.13;;;9.23;;
64684;SDS011;51109;47.414;18.954;2023-08-21T11:21:59;10.38;;;9.48;;
64684;SDS011;51109;47.414;18.954;2023-08-21T11:26:57;10.43;;;9.52;;
64684;SDS011;51109;47.414;18.954;2023-08-21T11:29:24;9.70;;;8.88;;
64684;SDS011;51109;47.414;18.954;2023-08-21T11:31:50;10.77;;;9.88;;
64684;SDS011;51109;47.414;18.954;2023-08-21T11:34:20;10.10;;;9.18;;
64684;SDS011;51109;47.414;18.954;2023-08-21T11:36:46;11.88;;;9.18;;
64684;SDS011;51109;47.414;18.954;2023-08-21T11:39:13;9.80;;;8.25;;
64684;SDS011;51109;47.414;18.954;2023-08-21T11:41:57;9.95;;;8.50;;
64684;SDS011;51109;47.414;18.954;2023-08-21T11:44:24;9.82;;;8.93;;
64684;SDS011;51109;47.414;18.954;2023-08-21T11:46:50;10.00;;;9.10;;
64684;SDS011;51109;47.414;18.954;2023-08-21T11:49:18;9.20;;;8.40;;
64684;SDS011;51109;47.414;18.954;2023-08-21T11:51:47;9.93;;;8.27;;
64684;SDS011;51109;47.414;18.954;2023-08-21T11:54:13;11.90;;;9.23;;
64684;SDS011;51109;47.414;18.954;2023-08-21T11:56:39;10.07;;;8.80;;
64684;SDS011;51109;47.414;18.954;2023-08-21T11:59:07;10.00;;;9.10;;
64684;SDS011;51109;47.414;18.954;2023-08-21T12:01:34;9.35;;;8.52;;
64684;SDS011;51109;47.414;18.954;2023-08-21T12:04:00;11.30;;;9.30;;
64684;SDS011;51109;47.414;18.954;2023-08-21T12:06:26;13.60;;;9.65;;
64684;SDS011;51109;47.414;18.954;2023-08-21T12:08:53;11.57;;;10.35;;
64684;SDS011;51109;47.414;18.954;2023-08-21T12:11:20;9.75;;;8.75;;
64684;SDS011;51109;47.414;18.954;2023-08-21T12:13:46;9.82;;;8.93;;
64684;SDS011;51109;47.414;18.954;2023-08-21T12:16:12;12.57;;;9.27;;
64684;SDS011;51109;47.414;18.954;2023-08-21T12:18:38;10.38;;;9.38;;
64684;SDS011;51109;47.414;18.954;2023-08-21T12:21:04;9.95;;;9.05;;
64684;SDS011;51109;47.414;18.954;2023-08-21T12:23:32;10.30;;;9.30;;
64684;SDS011;51109;47.414;18.954;2023-08-21T12:25:59;11.93;;;9.38;;
64684;SDS011;51109;47.414;18.954;2023-08-21T12:28:25;9.77;;;8.95;;
64684;SDS011;51109;47.414;18.954;2023-08-21T12:30:51;11.15;;;8.35;;
64684;SDS011;51109;47.414;18.954;2023-08-21T12:33:17;9.20;;;8.30;;
64684;SDS011;51109;47.414;18.954;2023-08-21T12:35:43;9.38;;;8.57;;
64684;SDS011;51109;47.414;18.954;2023-08-21T12:38:10;9.43;;;8.52;;
64684;SDS011;51109;47.414;18.954;2023-08-21T12:40:38;9.25;;;8.45;;
64684;SDS011;51109;47.414;18.954;2023-08-21T12:43:04;8.95;;;8.00;;
64684;SDS011;51109;47.414;18.954;2023-08-21T12:45:30;10.15;;;9.15;;
64684;SDS011;51109;47.414;18.954;2023-08-21T12:47:56;9.32;;;8.45;;
64684;SDS011;51109;47.414;18.954;2023-08-21T12:50:22;9.65;;;8.45;;
64684;SDS011;51109;47.414;18.954;2023-08-21T12:52:48;9.20;;;8.38;;
64684;SDS011;51109;47.414;18.954;2023-08-21T12:55:14;9.90;;;8.80;;
64684;SDS011;51109;47.414;18.954;2023-08-21T12:57:39;9.20;;;8.40;;
64684;SDS011;51109;47.414;18.954;2023-08-21T13:00:05;9.10;;;8.27;;
64684;SDS011;51109;47.414;18.954;2023-08-21T13:02:32;9.07;;;8.18;;
64684;SDS011;51109;47.414;18.954;2023-08-21T13:04:58;8.70;;;7.90;;
64684;SDS011;51109;47.414;18.954;2023-08-21T13:07:24;9.32;;;8.35;;
64684;SDS011;51109;47.414;18.954;2023-08-21T13:09:49;11.82;;;8.27;;
64684;SDS011;51109;47.414;18.954;2023-08-21T13:12:15;8.65;;;7.95;;
64684;SDS011;51109;47.414;18.954;2023-08-21T13:14:41;8.73;;;7.93;;
64684;SDS011;51109;47.414;18.954;2023-08-21T13:17:07;9.07;;;8.15;;
64684;SDS011;51109;47.414;18.954;2023-08-21T13:19:33;9.95;;;7.97;;
64684;SDS011;51109;47.414;18.954;2023-08-21T13:21:59;9.18;;;8.25;;
64684;SDS011;51109;47.414;18.954;2023-08-21T13:24:25;10.25;;;7.25;;
64684;SDS011;51109;47.414;18.954;2023-08-21T13:26:53;8.43;;;7.55;;
64684;SDS011;51109;47.414;18.954;2023-08-21T13:29:19;9.73;;;7.00;;
64684;SDS011;51109;47.414;18.954;2023-08-21T13:31:45;7.93;;;7.32;;
64684;SDS011;51109;47.414;18.954;2023-08-21T13:34:10;8.95;;;8.15;;
64684;SDS011;51109;47.414;18.954;2023-08-21T13:36:37;8.73;;;7.93;;
64684;SDS011;51109;47.414;18.954;2023-08-21T13:39:03;10.00;;;8.43;;
64684;SDS011;51109;47.414;18.954;2023-08-21T13:41:31;8.32;;;7.63;;
64684;SDS011;51109;47.414;18.954;2023-08-21T13:43:57;8.43;;;7.75;;
64684;SDS011;51109;47.414;18.954;2023-08-21T13:46:23;9.43;;;8.60;;
64684;SDS011;51109;47.414;18.954;2023-08-21T13:48:49;9.30;;;8.32;;
64684;SDS011;51109;47.414;18.954;2023-08-21T13:51:15;10.13;;;9.18;;
64684;SDS011;51109;47.414;18.954;2023-08-21T13:53:41;10.13;;;9.13;;
64684;SDS011;51109;47.414;18.954;2023-08-21T13:56:07;11.27;;;10.18;;
64684;SDS011;51109;47.414;18.954;2023-08-21T13:58:33;9.32;;;8.40;;
64684;SDS011;51109;47.414;18.954;2023-08-21T14:00:59;9.43;;;8.52;;
64684;SDS011;51109;47.414;18.954;2023-08-21T14:03:25;10.30;;;8.90;;
64684;SDS011;51109;47.414;18.954;2023-08-21T14:05:51;14.30;;;8.55;;
64684;SDS011;51109;47.414;18.954;2023-08-21T14:08:18;9.82;;;8.82;;
64684;SDS011;51109;47.414;18.954;2023-08-21T14:10:43;10.55;;;9.45;;
64684;SDS011;51109;47.414;18.954;2023-08-21T14:13:09;9.65;;;8.75;;
64684;SDS011;51109;47.414;18.954;2023-08-21T14:15:35;10.73;;;8.77;;
64684;SDS011;51109;47.414;18.954;2023-08-21T14:18:01;10.48;;;8.68;;
64684;SDS011;51109;47.414;18.954;2023-08-21T14:20:28;9.75;;;8.73;;
64684;SDS011;51109;47.414;18.954;2023-08-21T14:22:54;9.80;;;8.98;;
64684;SDS011;51109;47.414;18.954;2023-08-21T14:25:20;9.70;;;8.80;;
64684;SDS011;51109;47.414;18.954;2023-08-21T14:27:47;9.80;;;8.90;;
64684;SDS011;51109;47.414;18.954;2023-08-21T14:30:14;9.70;;;8.90;;
64684;SDS011;51109;47.414;18.954;2023-08-21T14:32:40;9.65;;;8.75;;
64684;SDS011;51109;47.414;18.954;2023-08-21T14:35:06;10.20;;;9.15;;